Terminal Aerodrome Forecast
Issued by NWS Cleveland, OH

Home | Current Version | Previous Version | Graphics & Text | Print | Product List | Glossary On
Versions: 1 2 3 4 5 6 7 8 9 10 11 12 13 14 15 16 17 18 19 20 21
365
FTUS41 KCLE 161735
TAFYNG
TAF
KYNG 161735Z 1618/1718 26015G25KT 6SM -SHSNRA BKN012 OVC020
      TEMPO 1621/1624 SCT012 OVC020
     FM170000 30011KT P6SM SCT012 OVC020
     FM170700 30006KT P6SM BKN015 OVC025
     FM171600 19005KT P6SM SCT025 BKN250=

USA.gov is the U.S. government's official web portal to all federal, state and local government web resources and services.